Time;durP1;ratioP1;P1;durP2;ratioP2;P2;SDS_P1;SDS_P2;PMS_P1;PMS_P2;Temp;Humidity;BMP_temperature;BMP_pressure;BME280_temperature;BME280_humidity;BME280_pressure;Samples;Min_cycle;Max_cycle;Signal;HPM_P1;HPM_P2
2022/07/21 00:01:02;;;;;;;12.90;11.82;;;;;;;20.41;100.00;97088.25;5056012;28;20203;-54
2022/07/21 00:03:28;;;;;;;12.25;11.25;;;;;;;20.41;100.00;97093.63;5055842;28;20631;-55
2022/07/21 00:05:55;;;;;;;12.48;11.35;;;;;;;20.47;100.00;97092.06;5056157;28;20273;-55
2022/07/21 00:08:23;;;;;;;12.82;11.63;;;;;;;20.42;100.00;97089.94;5056552;28;20238;-55
2022/07/21 00:10:50;;;;;;;13.18;12.02;;;;;;;20.45;100.00;97080.66;5055823;28;20215;-55
2022/07/21 00:13:17;;;;;;;12.88;11.77;;;;;;;20.43;100.00;97086.22;5055019;28;20203;-55
2022/07/21 00:15:43;;;;;;;12.30;11.40;;;;;;;20.44;100.00;97077.13;5048619;28;20656;-54
2022/07/21 00:18:10;;;;;;;12.88;11.77;;;;;;;20.44;100.00;97070.94;5057529;28;20203;-55
2022/07/21 00:20:37;;;;;;;13.07;11.98;;;;;;;20.45;100.00;97094.91;5055515;28;20234;-54
2022/07/21 00:23:04;;;;;;;14.18;13.00;;;;;;;20.46;100.00;97093.91;5055466;28;20257;-55
2022/07/21 00:25:32;;;;;;;14.75;13.43;;;;;;;20.46;100.00;97085.84;5055848;28;20296;-54
2022/07/21 00:27:59;;;;;;;13.75;12.73;;;;;;;20.43;100.00;97088.09;5055760;28;20253;-54
2022/07/21 00:30:26;;;;;;;13.20;12.20;;;;;;;20.38;100.00;97088.66;5055365;28;20647;-54
2022/07/21 00:32:53;;;;;;;13.52;12.43;;;;;;;20.39;100.00;97084.97;5055404;28;20249;-54
2022/07/21 00:35:19;;;;;;;14.32;13.02;;;;;;;20.35;100.00;97086.38;5056181;28;20286;-55
2022/07/21 00:37:46;;;;;;;13.60;12.50;;;;;;;20.39;100.00;97082.28;5056430;28;20241;-55
2022/07/21 00:40:15;;;;;;;13.05;11.95;;;;;;;20.40;100.00;97086.63;5056132;28;20207;-55
2022/07/21 00:42:44;;;;;;;13.15;12.05;;;;;;;20.36;100.00;97085.34;5055551;28;20227;-54
2022/07/21 00:45:11;;;;;;;13.30;12.10;;;;;;;20.39;100.00;97084.97;5055495;28;20277;-54
2022/07/21 00:47:38;;;;;;;13.48;12.32;;;;;;;20.36;100.00;97069.22;5055348;28;20675;-54
2022/07/21 00:50:08;;;;;;;12.82;11.82;;;;;;;20.40;100.00;97072.34;5055652;28;20226;-55
2022/07/21 00:52:35;;;;;;;14.32;13.13;;;;;;;20.38;100.00;97083.28;5054281;28;20207;-55
2022/07/21 00:55:02;;;;;;;14.15;13.05;;;;;;;20.38;100.00;97080.59;5055750;28;20235;-54
2022/07/21 00:57:29;;;;;;;13.73;12.73;;;;;;;20.35;100.00;97083.69;5055262;28;20217;-55
2022/07/21 00:59:58;;;;;;;14.10;12.90;;;;;;;20.33;100.00;97086.53;5055076;28;20242;-55
2022/07/21 01:02:26;;;;;;;13.93;12.73;;;;;;;20.34;100.00;97085.53;5055452;28;20262;-55
2022/07/21 01:04:53;;;;;;;14.65;13.45;;;;;;;20.33;100.00;97075.78;5055714;28;20211;-55
2022/07/21 01:07:21;;;;;;;13.40;12.32;;;;;;;20.34;100.00;97069.41;5055402;28;20586;-55
2022/07/21 01:09:47;;;;;;;13.88;12.75;;;;;;;20.36;100.00;97079.97;5055879;28;20210;-55
2022/07/21 01:12:14;;;;;;;14.52;13.23;;;;;;;20.35;100.00;97072.94;5055274;28;20253;-55
2022/07/21 01:14:41;;;;;;;13.27;12.27;;;;;;;20.35;100.00;97062.19;5055501;28;20261;-55
2022/07/21 01:17:09;;;;;;;14.23;13.23;;;;;;;20.37;100.00;97072.75;5055328;28;20253;-55
2022/07/21 01:19:36;;;;;;;13.68;12.52;;;;;;;20.42;100.00;97068.44;5051800;28;20246;-54
2022/07/21 01:22:04;;;;;;;13.60;12.50;;;;;;;20.38;100.00;97071.69;5043796;28;20242;-55
2022/07/21 01:24:31;;;;;;;13.65;12.48;;;;;;;20.37;100.00;97070.88;5055234;28;20525;-54
2022/07/21 01:26:57;;;;;;;13.55;12.45;;;;;;;20.34;100.00;97053.28;5054894;28;20207;-53
2022/07/21 01:29:25;;;;;;;13.80;12.60;;;;;;;20.33;100.00;97059.69;5054348;28;21546;-54
2022/07/21 01:31:52;;;;;;;13.32;12.23;;;;;;;20.33;100.00;97075.00;5054390;28;20238;-55
2022/07/21 01:34:19;;;;;;;13.52;12.43;;;;;;;20.35;100.00;97073.75;5054629;28;20574;-56
2022/07/21 01:36:45;;;;;;;13.45;12.45;;;;;;;20.33;100.00;97064.25;5054961;28;20281;-56
2022/07/21 01:41:58;;;;;;;13.75;12.50;;;;;;;20.27;100.00;97064.97;5055209;28;20233;-55
2022/07/21 01:44:25;;;;;;;13.27;12.07;;;;;;;20.31;100.00;97066.28;5056001;28;20300;-55
2022/07/21 01:46:52;;;;;;;12.77;11.68;;;;;;;20.27;100.00;97065.84;5054799;28;20219;-55
2022/07/21 01:49:20;;;;;;;13.75;12.75;;;;;;;20.24;100.00;97063.50;5053926;28;20218;-54
2022/07/21 01:51:48;;;;;;;13.00;11.80;;;;;;;20.25;100.00;97056.28;5054937;28;20247;-54
2022/07/21 01:54:17;;;;;;;13.50;12.30;;;;;;;20.20;100.00;97056.84;5054945;28;20210;-55
2022/07/21 01:56:43;;;;;;;12.90;11.82;;;;;;;20.18;100.00;97055.41;5053718;28;20284;-54
2022/07/21 01:59:10;;;;;;;13.30;12.25;;;;;;;20.19;100.00;97057.06;5054362;28;20239;-54
2022/07/21 02:01:37;;;;;;;13.45;12.52;;;;;;;20.16;100.00;97049.38;5054371;28;20207;-55
2022/07/21 02:04:05;;;;;;;13.75;12.65;;;;;;;20.15;100.00;97045.03;5054089;28;20254;-55
2022/07/21 02:06:33;;;;;;;13.02;11.88;;;;;;;20.16;100.00;97057.44;5054030;28;20231;-55
2022/07/21 02:08:59;;;;;;;13.00;12.00;;;;;;;20.15;100.00;97055.78;5054891;28;20340;-55
2022/07/21 02:11:28;;;;;;;13.63;12.50;;;;;;;20.12;100.00;97069.59;5054454;28;20296;-55
2022/07/21 02:13:55;;;;;;;13.00;12.00;;;;;;;20.11;100.00;97068.75;5054554;28;20207;-54
2022/07/21 02:16:21;;;;;;;13.43;12.32;;;;;;;20.14;100.00;97071.06;5054786;28;20199;-56
2022/07/21 02:18:48;;;;;;;13.70;12.50;;;;;;;20.08;100.00;97073.69;5061884;28;20277;-55
2022/07/21 02:21:15;;;;;;;12.88;11.88;;;;;;;20.01;100.00;97068.25;5060788;28;20512;-55
2022/07/21 02:23:41;;;;;;;12.95;12.05;;;;;;;19.98;100.00;97070.50;5058009;28;20288;-55
2022/07/21 02:26:08;;;;;;;12.88;11.93;;;;;;;19.98;100.00;97071.28;5057405;28;20525;-54
2022/07/21 02:28:36;;;;;;;12.80;11.73;;;;;;;19.95;100.00;97062.78;5058199;28;20516;-55
2022/07/21 02:31:03;;;;;;;13.10;12.10;;;;;;;19.92;100.00;97057.81;5058069;28;20227;-54
2022/07/21 02:33:30;;;;;;;12.98;11.85;;;;;;;19.92;100.00;97055.13;5058425;28;20587;-55
2022/07/21 02:35:57;;;;;;;13.15;12.25;;;;;;;19.91;100.00;97058.84;5057763;28;20214;-55
2022/07/21 02:38:23;;;;;;;12.55;11.65;;;;;;;19.88;100.00;97057.38;5058720;28;20281;-55
2022/07/21 02:40:50;;;;;;;13.25;12.25;;;;;;;19.87;100.00;97064.59;5058063;28;20211;-54
2022/07/21 02:43:17;;;;;;;14.27;12.65;;;;;;;19.87;100.00;97063.78;5057715;28;20258;-55
2022/07/21 02:45:45;;;;;;;14.38;13.07;;;;;;;19.86;100.00;97065.63;5057900;28;20641;-56
2022/07/21 02:48:13;;;;;;;13.38;12.38;;;;;;;19.82;100.00;97058.13;5057491;28;20231;-54
2022/07/21 02:50:43;;;;;;;13.70;12.68;;;;;;;19.78;100.00;97065.75;5057097;28;20633;-55
2022/07/21 02:53:15;;;;;;;14.05;12.80;;;;;;;19.76;100.00;97067.78;5057749;28;20203;-54
2022/07/21 02:55:41;;;;;;;13.60;12.50;;;;;;;19.73;100.00;97070.81;5057843;28;20286;-54
2022/07/21 02:58:10;;;;;;;14.43;13.13;;;;;;;19.74;100.00;97069.81;5057477;28;20211;-55
2022/07/21 03:00:38;;;;;;;13.27;12.18;;;;;;;19.77;100.00;97072.13;5057576;28;20242;-55
2022/07/21 03:03:07;;;;;;;13.35;12.20;;;;;;;19.73;100.00;97068.16;5058037;28;20310;-54
2022/07/21 03:05:34;;;;;;;13.43;12.43;;;;;;;19.70;100.00;97063.16;5059018;28;20239;-55
2022/07/21 03:08:00;;;;;;;13.30;12.20;;;;;;;19.69;100.00;97061.53;5059111;28;20207;-54
2022/07/21 03:10:29;;;;;;;13.68;12.35;;;;;;;19.68;100.00;97070.59;5059243;28;20225;-55
2022/07/21 03:12:55;;;;;;;13.07;12.07;;;;;;;19.66;100.00;97069.94;5044103;28;20211;-55
2022/07/21 03:15:22;;;;;;;13.05;11.98;;;;;;;19.64;100.00;97068.47;5057515;28;20207;-55
2022/07/21 03:17:49;;;;;;;12.90;11.80;;;;;;;19.60;100.00;97081.41;5058240;28;20203;-54
2022/07/21 03:20:17;;;;;;;13.27;12.27;;;;;;;19.55;100.00;97085.69;5059026;28;20237;-55
2022/07/21 03:22:43;;;;;;;13.23;12.13;;;;;;;19.55;100.00;97083.84;5057050;28;20235;-54
2022/07/21 03:25:10;;;;;;;13.18;12.07;;;;;;;19.54;100.00;97084.88;5056933;28;20535;-55
2022/07/21 03:27:37;;;;;;;13.27;12.18;;;;;;;19.52;100.00;97081.53;5056640;28;20339;-55
2022/07/21 03:30:06;;;;;;;13.55;12.50;;;;;;;19.46;100.00;97081.44;5056836;28;20268;-55
2022/07/21 03:32:33;;;;;;;14.25;13.05;;;;;;;19.49;100.00;97081.91;5056846;28;20207;-55
2022/07/21 03:34:59;;;;;;;12.98;11.98;;;;;;;19.51;100.00;97082.56;5056627;28;20207;-55
2022/07/21 03:37:27;;;;;;;13.93;12.73;;;;;;;19.50;100.00;97086.25;5056288;28;20237;-54
2022/07/21 03:39:54;;;;;;;13.55;12.48;;;;;;;19.49;100.00;97089.13;5056257;28;20632;-54
2022/07/21 03:42:21;;;;;;;13.20;12.10;;;;;;;19.49;100.00;97092.63;5056424;28;20207;-55
2022/07/21 03:44:48;;;;;;;14.25;13.15;;;;;;;19.50;100.00;97088.94;5056453;28;20235;-54
2022/07/21 03:47:14;;;;;;;13.35;12.35;;;;;;;19.49;100.00;97081.91;5056250;28;20337;-54
2022/07/21 03:49:41;;;;;;;14.90;13.48;;;;;;;19.54;100.00;97090.22;5056621;28;20239;-54
2022/07/21 03:52:08;;;;;;;16.00;14.60;;;;;;;19.52;100.00;97084.22;5056471;28;20211;-54
2022/07/21 03:54:35;;;;;;;15.32;13.80;;;;;;;19.47;100.00;97089.31;5056541;28;20196;-55
2022/07/21 03:57:02;;;;;;;13.27;12.15;;;;;;;19.49;100.00;97086.44;5056025;28;20283;-54
2022/07/21 03:59:29;;;;;;;15.05;13.77;;;;;;;19.50;100.00;97088.94;5056478;28;20292;-56
2022/07/21 04:01:56;;;;;;;14.48;13.32;;;;;;;19.50;100.00;97097.00;5055883;28;20256;-54
2022/07/21 04:04:22;;;;;;;14.35;13.15;;;;;;;19.51;100.00;97100.50;5056229;28;20273;-54
2022/07/21 04:06:49;;;;;;;13.75;12.45;;;;;;;19.52;100.00;97094.13;5056218;28;20241;-55
2022/07/21 04:09:17;;;;;;;14.30;13.20;;;;;;;19.51;100.00;97095.97;5056355;28;20222;-55
2022/07/21 04:11:45;;;;;;;13.95;12.80;;;;;;;19.55;100.00;97102.63;5056013;28;20203;-55
2022/07/21 04:14:11;;;;;;;14.25;13.07;;;;;;;19.52;100.00;97094.94;5056202;28;20207;-54
2022/07/21 04:16:38;;;;;;;14.90;13.70;;;;;;;19.51;100.00;97104.03;5056279;28;20215;-54
2022/07/21 04:19:05;;;;;;;13.90;12.80;;;;;;;19.55;100.00;97108.00;5056286;28;20257;-55
2022/07/21 04:21:31;;;;;;;14.00;12.90;;;;;;;19.57;100.00;97113.16;5058898;28;20207;-54
2022/07/21 04:23:58;;;;;;;15.35;13.93;;;;;;;19.60;100.00;97108.25;5057582;28;20683;-55
2022/07/21 04:26:27;;;;;;;15.25;14.05;;;;;;;19.57;100.00;97102.44;5061873;28;20203;-54
2022/07/21 04:28:55;;;;;;;14.07;12.98;;;;;;;19.59;100.00;97108.47;5068064;28;20245;-55
2022/07/21 04:31:21;;;;;;;15.30;14.05;;;;;;;19.61;100.00;97111.78;5064541;28;20206;-54
2022/07/21 04:33:48;;;;;;;14.68;13.35;;;;;;;19.63;100.00;97115.91;5067196;28;20246;-55
2022/07/21 04:36:15;;;;;;;14.93;13.82;;;;;;;19.65;100.00;97108.53;5065729;28;20299;-57
2022/07/21 04:38:41;;;;;;;15.65;14.45;;;;;;;19.72;100.00;97112.13;5055237;28;20207;-61
2022/07/21 04:41:08;;;;;;;14.70;13.50;;;;;;;19.78;100.00;97119.41;5071508;28;20255;-56
2022/07/21 04:43:35;;;;;;;15.52;14.30;;;;;;;19.80;100.00;97122.72;5059257;28;20211;-54
2022/07/21 04:46:03;;;;;;;14.98;13.88;;;;;;;19.81;100.00;97115.50;5059122;28;20172;-54
2022/07/21 04:48:29;;;;;;;15.82;14.63;;;;;;;19.82;100.00;97120.69;5059425;28;20275;-55
2022/07/21 04:50:56;;;;;;;16.40;15.05;;;;;;;19.86;100.00;97132.72;5079236;28;20183;-54
2022/07/21 04:53:22;;;;;;;16.23;14.80;;;;;;;19.89;100.00;97128.81;5076815;28;20183;-55
2022/07/21 04:55:49;;;;;;;16.27;15.00;;;;;;;19.95;100.00;97128.06;5078402;28;20214;-55
2022/07/21 04:58:16;;;;;;;15.45;14.25;;;;;;;20.04;100.00;97132.31;5078828;28;20215;-54
2022/07/21 05:00:43;;;;;;;16.52;15.13;;;;;;;20.08;100.00;97125.53;5078907;28;20253;-55
2022/07/21 05:03:13;;;;;;;15.35;14.13;;;;;;;20.09;100.00;97121.81;5078337;28;20199;-55
2022/07/21 05:05:40;;;;;;;16.13;14.80;;;;;;;20.09;100.00;97129.03;5051397;28;20551;-55
2022/07/21 05:08:06;;;;;;;15.23;14.02;;;;;;;20.10;100.00;97122.66;5055021;28;20264;-55
2022/07/21 05:10:33;;;;;;;17.10;15.45;;;;;;;20.12;100.00;97131.38;5054110;28;20192;-53
2022/07/21 05:12:59;;;;;;;17.45;16.00;;;;;;;20.18;100.00;97125.22;5054755;28;20238;-54
2022/07/21 05:15:26;;;;;;;17.50;16.00;;;;;;;20.22;100.00;97123.81;5044267;28;20226;-54
2022/07/21 05:17:53;;;;;;;16.98;15.60;;;;;;;20.28;100.00;97120.38;5054605;28;20575;-54
2022/07/21 05:20:21;;;;;;;18.13;16.35;;;;;;;20.33;100.00;97126.03;5054687;28;20577;-52
2022/07/21 05:22:47;;;;;;;17.20;15.60;;;;;;;20.43;100.00;97128.38;5054691;28;20211;-54
2022/07/21 05:25:14;;;;;;;17.50;16.10;;;;;;;20.52;100.00;97117.31;5054205;28;20225;-54
2022/07/21 05:27:41;;;;;;;18.85;17.25;;;;;;;20.53;100.00;97124.34;5054243;28;20238;-53
2022/07/21 05:30:09;;;;;;;17.48;16.08;;;;;;;20.61;100.00;97136.81;5054632;28;20249;-54
2022/07/21 05:32:36;;;;;;;17.42;15.98;;;;;;;20.63;100.00;97126.69;5054318;28;20241;-53
2022/07/21 05:35:08;;;;;;;19.02;17.27;;;;;;;20.64;100.00;97131.88;5054616;28;20230;-53
2022/07/21 05:37:36;;;;;;;18.27;16.88;;;;;;;20.71;100.00;97132.78;5054289;28;20265;-55
2022/07/21 05:40:03;;;;;;;18.38;16.90;;;;;;;20.73;100.00;97135.25;5054019;28;20538;-54
2022/07/21 05:42:30;;;;;;;19.13;17.52;;;;;;;20.73;100.00;97129.88;5054320;28;20203;-53
2022/07/21 05:44:56;;;;;;;18.02;16.63;;;;;;;20.79;100.00;97138.03;5054188;28;20682;-53
2022/07/21 05:47:23;;;;;;;17.63;16.13;;;;;;;20.88;100.00;97137.84;5053871;28;20231;-53
2022/07/21 05:49:49;;;;;;;18.50;16.95;;;;;;;20.83;100.00;97141.94;5054548;28;20207;-53
2022/07/21 05:52:16;;;;;;;18.52;17.02;;;;;;;20.83;100.00;97136.56;5055776;28;20215;-54
2022/07/21 05:54:44;;;;;;;19.10;17.40;;;;;;;20.83;100.00;97141.94;5058459;28;20206;-54
2022/07/21 05:57:10;;;;;;;19.33;17.77;;;;;;;20.91;100.00;97148.22;5057745;28;20207;-53
2022/07/21 05:59:37;;;;;;;17.63;16.15;;;;;;;21.14;100.00;97149.69;5058384;28;20213;-54
2022/07/21 06:02:04;;;;;;;17.52;16.23;;;;;;;21.44;100.00;97144.03;5057969;28;20222;-53
2022/07/21 06:04:30;;;;;;;16.80;15.30;;;;;;;21.70;100.00;97150.41;5057493;28;20750;-54
2022/07/21 06:06:57;;;;;;;18.08;16.55;;;;;;;21.86;100.00;97148.41;5057621;28;20214;-54
2022/07/21 06:09:23;;;;;;;17.85;16.42;;;;;;;21.82;100.00;97145.28;5055013;28;20627;-53
2022/07/21 06:11:51;;;;;;;18.05;16.67;;;;;;;21.79;100.00;97156.44;5057854;28;20210;-54
2022/07/21 06:14:18;;;;;;;16.75;15.25;;;;;;;21.89;100.00;97154.22;5057927;28;20510;-54
2022/07/21 06:16:45;;;;;;;14.32;13.23;;;;;;;21.99;100.00;97159.25;5056987;28;20233;-53
2022/07/21 06:19:11;;;;;;;14.63;13.38;;;;;;;22.10;100.00;97155.97;5057440;28;20568;-53
2022/07/21 06:21:38;;;;;;;16.27;14.65;;;;;;;22.30;100.00;97154.16;5057095;28;20612;-54
2022/07/21 06:24:05;;;;;;;14.82;13.63;;;;;;;;;;5059186;28;20226;-53
2022/07/21 06:26:31;;;;;;;12.77;11.57;;;;;;;22.64;100.00;97158.56;5059574;28;20213;-52
2022/07/21 06:28:59;;;;;;;12.00;11.00;;;;;;;22.68;100.00;97166.06;5058123;28;20210;-52
2022/07/21 06:31:26;;;;;;;12.02;10.85;;;;;;;22.41;100.00;97161.66;5057353;28;20227;-54
2022/07/21 06:33:53;;;;;;;11.63;10.52;;;;;;;22.34;100.00;97160.81;5057258;28;20229;-54
2022/07/21 06:36:19;;;;;;;12.68;11.65;;;;;;;22.05;100.00;97164.66;5057165;28;20306;-53
2022/07/21 06:38:46;;;;;;;11.48;10.38;;;;;;;22.05;100.00;97170.03;5057280;28;20207;-54
2022/07/21 06:41:13;;;;;;;11.23;10.13;;;;;;;21.95;100.00;97174.16;5057179;28;20209;-54
2022/07/21 06:43:40;;;;;;;11.80;10.73;;;;;;;21.95;100.00;97168.75;5057216;28;20233;-54
2022/07/21 06:46:08;;;;;;;11.45;10.45;;;;;;;21.86;100.00;97169.94;5053893;28;20255;-54
2022/07/21 06:48:35;;;;;;;11.93;10.93;;;;;;;21.77;100.00;97164.72;5043173;28;20262;-53
2022/07/21 06:51:01;;;;;;;11.77;10.77;;;;;;;21.67;100.00;97183.13;5055541;28;20203;-53
2022/07/21 06:53:28;;;;;;;12.00;10.80;;;;;;;21.74;100.00;97178.59;5055443;28;20207;-54
2022/07/21 06:55:55;;;;;;;11.35;10.35;;;;;;;21.75;100.00;97185.63;5055783;28;20203;-54
2022/07/21 06:58:24;;;;;;;10.98;10.07;;;;;;;21.75;100.00;97188.31;5056240;28;20545;-53
2022/07/21 07:00:51;;;;;;;11.60;10.60;;;;;;;21.76;100.00;97187.28;5055409;28;20630;-53
2022/07/21 07:03:20;;;;;;;10.82;9.82;;;;;;;21.77;100.00;97178.19;5052520;28;20324;-54
2022/07/21 07:05:48;;;;;;;11.60;10.50;;;;;;;21.93;100.00;97185.09;5056120;28;20254;-53
2022/07/21 07:08:15;;;;;;;10.95;9.95;;;;;;;22.10;100.00;97188.31;5053879;28;20217;-53
2022/07/21 07:10:42;;;;;;;11.82;10.60;;;;;;;22.18;99.34;97188.09;5055784;28;20292;-53
2022/07/21 07:13:10;;;;;;;10.95;9.95;;;;;;;22.17;100.00;97183.78;5055801;28;20640;-53
2022/07/21 07:15:36;;;;;;;10.77;9.85;;;;;;;22.21;100.00;97185.03;5055196;28;20230;-53
2022/07/21 07:18:03;;;;;;;10.35;9.45;;;;;;;22.26;97.57;97187.94;5055333;28;20204;-53
2022/07/21 07:20:34;;;;;;;11.63;10.32;;;;;;;22.24;99.76;97195.41;5055412;28;20206;-54
2022/07/21 07:23:00;;;;;;;11.60;10.48;;;;;;;22.26;98.25;97191.47;5055030;28;20218;-53
2022/07/21 07:25:27;;;;;;;10.45;9.45;;;;;;;22.28;92.64;97191.28;5055079;28;20250;-54
2022/07/21 07:27:54;;;;;;;10.02;9.13;;;;;;;22.42;89.96;97181.34;5055172;28;20207;-54
2022/07/21 07:30:20;;;;;;;10.23;9.43;;;;;;;22.38;88.70;97189.00;5055243;28;20211;-54
2022/07/21 07:32:48;;;;;;;9.23;8.35;;;;;;;22.45;89.79;97184.47;5054995;28;20257;-54
2022/07/21 07:35:15;;;;;;;9.18;8.23;;;;;;;22.66;86.47;97189.69;5049913;28;20199;-53
2022/07/21 07:37:44;;;;;;;9.35;8.55;;;;;;;22.71;90.27;97191.78;5054638;28;20213;-53
2022/07/21 07:40:13;;;;;;;9.50;8.68;;;;;;;22.79;81.98;97192.41;5055107;28;20624;-53
2022/07/21 07:42:40;;;;;;;10.27;8.20;;;;;;;22.65;79.71;97193.41;5054980;28;20257;-53
2022/07/21 07:45:10;;;;;;;8.88;8.05;;;;;;;22.57;82.29;97198.97;5054775;28;20309;-54
2022/07/21 07:47:37;;;;;;;9.52;8.18;;;;;;;22.50;83.57;97200.84;5002922;28;1129019;-53
2022/07/21 07:50:05;;;;;;;8.65;7.95;;;;;;;22.49;83.53;97191.13;5056625;28;20238;-53
2022/07/21 07:52:32;;;;;;;9.73;8.82;;;;;;;22.45;85.37;97189.84;5043345;28;20203;-52
2022/07/21 07:55:03;;;;;;;9.00;7.72;;;;;;;22.48;83.95;97191.31;5055803;28;20627;-53
2022/07/21 07:57:30;;;;;;;8.82;7.90;;;;;;;22.48;84.72;97191.31;5056180;28;20207;-52
2022/07/21 07:59:56;;;;;;;8.77;8.07;;;;;;;22.56;82.38;97193.81;5056243;28;20207;-53
2022/07/21 08:02:23;;;;;;;9.20;8.23;;;;;;;22.59;83.54;97196.09;5056038;28;20199;-52
2022/07/21 08:04:50;;;;;;;9.15;8.27;;;;;;;22.60;85.93;97184.28;5054976;28;20235;-53
2022/07/21 08:07:16;;;;;;;9.30;8.40;;;;;;;22.63;86.96;97183.88;5056360;28;20195;-53
2022/07/21 08:09:43;;;;;;;9.43;8.63;;;;;;;22.70;86.63;97180.19;5056284;28;20203;-53
2022/07/21 08:12:11;;;;;;;9.48;8.75;;;;;;;22.72;86.16;97183.50;5056046;28;20211;-53
2022/07/21 08:14:39;;;;;;;10.63;9.50;;;;;;;22.74;89.87;97181.41;5054754;28;20297;-53
2022/07/21 08:17:08;;;;;;;9.57;8.77;;;;;;;22.97;86.11;97189.09;5054840;28;20214;-54
2022/07/21 08:19:35;;;;;;;9.52;8.63;;;;;;;23.41;90.68;97187.63;5056011;28;20554;-52
2022/07/21 08:22:02;;;;;;;9.55;8.68;;;;;;;23.60;87.88;97187.59;5055622;28;20221;-53
2022/07/21 08:24:28;;;;;;;10.35;9.35;;;;;;;23.69;86.16;97197.16;5054848;28;20204;-54
2022/07/21 08:26:55;;;;;;;9.13;8.43;;;;;;;23.75;85.52;97190.91;5055344;28;20546;-52
2022/07/21 08:29:23;;;;;;;10.98;8.30;;;;;;;23.64;79.94;97191.56;5057431;28;20268;-54
2022/07/21 08:31:50;;;;;;;10.00;9.07;;;;;;;23.69;81.09;97197.16;5075540;28;20234;-54
2022/07/21 08:34:16;;;;;;;9.10;8.30;;;;;;;23.75;86.89;97193.59;5066559;28;20211;-54
2022/07/21 08:36:43;;;;;;;10.50;8.40;;;;;;;24.02;81.90;97188.13;5058814;28;20627;-53
2022/07/21 08:39:10;;;;;;;8.73;8.00;;;;;;;24.14;81.72;97189.13;5055785;28;20514;-52
2022/07/21 08:41:37;;;;;;;8.65;7.85;;;;;;;24.43;80.06;97185.03;5055568;28;20210;-52
2022/07/21 08:44:04;;;;;;;9.15;7.55;;;;;;;24.88;76.49;97180.38;5055336;28;20207;-53
2022/07/21 08:46:34;;;;;;;7.45;6.72;;;;;;;25.26;73.68;97183.78;5053724;28;20231;-53
2022/07/21 08:49:03;;;;;;;9.15;7.35;;;;;;;25.62;72.91;97185.75;5047224;28;20262;-52
2022/07/21 08:51:33;;;;;;;8.77;6.57;;;;;;;25.74;68.56;97176.69;5049610;28;20203;-53
2022/07/21 08:53:59;;;;;;;7.80;7.15;;;;;;;25.86;66.73;97184.06;5055649;28;20264;-52
2022/07/21 08:56:26;;;;;;;33.08;11.10;;;;;;;25.84;66.19;97186.16;5054885;28;20620;-52
2022/07/21 08:58:52;;;;;;;13.07;7.18;;;;;;;25.73;68.30;97175.03;5055501;28;20543;-52
2022/07/21 09:01:20;;;;;;;7.70;6.90;;;;;;;25.82;67.72;97185.56;5054720;28;20231;-52
2022/07/21 09:03:48;;;;;;;7.88;7.07;;;;;;;25.68;65.08;97177.56;5055093;28;20203;-52
2022/07/21 09:06:15;;;;;;;7.82;7.13;;;;;;;25.58;66.63;97177.25;5051003;28;20294;-52
2022/07/21 09:08:44;;;;;;;7.10;6.60;;;;;;;25.65;70.35;97179.91;5054959;28;20230;-52
2022/07/21 09:11:13;;;;;;;7.18;6.63;;;;;;;25.83;67.49;97181.78;5054928;28;20579;-53
2022/07/21 09:13:40;;;;;;;7.30;6.60;;;;;;;26.10;70.14;97181.25;5054998;28;20548;-52
2022/07/21 09:16:07;;;;;;;6.20;5.70;;;;;;;26.12;58.63;97173.72;5054921;28;20201;-52
2022/07/21 09:18:36;;;;;;;6.00;5.47;;;;;;;26.40;61.79;97175.03;5055287;28;20207;-52
2022/07/21 09:21:06;;;;;;;6.20;5.80;;;;;;;26.97;65.33;97170.88;5055099;28;20210;-52
2022/07/21 09:23:33;;;;;;;7.03;6.47;;;;;;;27.24;60.84;97174.84;5055516;28;20249;-54
2022/07/21 09:26:01;;;;;;;7.18;6.55;;;;;;;27.53;62.60;97173.91;5055145;28;20254;-52
2022/07/21 09:28:31;;;;;;;6.38;5.90;;;;;;;27.60;63.95;97171.06;5054951;28;20207;-51
2022/07/21 09:31:00;;;;;;;7.22;6.53;;;;;;;27.47;60.85;97168.59;5053951;28;20203;-51
2022/07/21 09:33:31;;;;;;;8.85;6.68;;;;;;;27.64;62.58;97164.91;5054854;28;20203;-52
2022/07/21 09:36:10;;;;;;;8.40;6.80;;;;;;;27.48;59.28;97156.66;5054060;28;20195;-52
2022/07/21 09:38:39;;;;;;;8.23;6.63;;;;;;;27.04;62.83;97163.44;5054321;28;20195;-52
2022/07/21 09:41:08;;;;;;;6.35;5.70;;;;;;;27.45;62.70;97157.16;5054130;28;20253;-53
2022/07/21 09:43:41;;;;;;;8.23;6.63;;;;;;;27.46;60.44;97165.03;5054308;28;20643;-53
2022/07/21 09:46:14;;;;;;;7.90;7.10;;;;;;;27.78;60.47;97164.66;5051943;28;20538;-53
2022/07/21 09:48:42;;;;;;;7.50;6.82;;;;;;;27.57;57.43;97160.66;5051215;28;20286;-53
2022/07/21 09:51:28;;;;;;;8.68;7.18;;;;;;;27.78;59.60;97159.22;5053884;28;20199;-53
2022/07/21 09:53:57;;;;;;;8.63;7.82;;;;;;;27.33;57.92;97154.38;5054048;28;20213;-54
2022/07/21 09:56:25;;;;;;;8.15;7.35;;;;;;;27.50;57.90;97163.50;5046775;28;20203;-51
2022/07/21 09:58:55;;;;;;;8.95;7.10;;;;;;;27.62;58.81;97158.91;5054139;28;20268;-52
2022/07/21 10:01:22;;;;;;;8.73;7.80;;;;;;;27.81;58.64;97162.28;5054281;28;20235;-53
2022/07/21 10:03:49;;;;;;;8.05;7.22;;;;;;;27.86;59.96;97159.69;5053915;28;20242;-52
2022/07/21 10:06:18;;;;;;;8.48;7.05;;;;;;;27.78;60.09;97162.75;5054246;28;20233;-52
2022/07/21 10:08:47;;;;;;;8.52;7.55;;;;;;;27.75;58.11;97162.41;5054486;28;20206;-53
2022/07/21 10:11:13;;;;;;;7.50;6.90;;;;;;;27.50;59.37;97163.50;5054295;28;20211;-53
2022/07/21 10:13:40;;;;;;;7.38;6.78;;;;;;;27.63;60.68;97155.09;5042046;28;20221;-52
2022/07/21 10:16:10;;;;;;;7.30;6.70;;;;;;;27.62;57.26;97158.06;5054116;28;20290;-53
2022/07/21 10:18:39;;;;;;;7.95;7.15;;;;;;;27.66;58.67;97149.22;5054200;28;20269;-53
2022/07/21 10:21:18;;;;;;;7.60;7.00;;;;;;;27.81;59.54;97156.03;5054188;28;20290;-52
2022/07/21 10:23:51;;;;;;;7.20;6.53;;;;;;;27.33;58.59;97148.97;5057223;28;20293;-53
2022/07/21 10:26:17;;;;;;;7.03;6.40;;;;;;;27.41;60.14;97150.50;5060289;28;20285;-53
2022/07/21 10:28:44;;;;;;;6.97;6.38;;;;;;;27.61;60.21;97150.97;5062044;28;20267;-53
2022/07/21 10:31:18;;;;;;;6.90;6.30;;;;;;;27.79;58.79;97152.72;5059095;28;20196;-52
2022/07/21 10:33:56;;;;;;;6.93;6.22;;;;;;;28.25;56.94;97146.34;5056307;28;20199;-54
2022/07/21 10:36:45;;;;;;;6.78;6.00;;;;;;;28.31;56.40;97139.94;5042193;28;20203;-53
2022/07/21 10:39:24;;;;;;;6.50;6.00;;;;;;;27.79;58.81;97141.84;5054919;28;20203;-52
2022/07/21 10:41:53;;;;;;;6.63;6.13;;;;;;;27.53;58.30;97145.91;5065495;28;20233;-54
2022/07/21 10:44:39;;;;;;;6.97;6.38;;;;;;;27.50;54.35;97143.66;5059418;28;20246;-53
2022/07/21 10:47:07;;;;;;;6.88;6.00;;;;;;;27.62;56.32;97139.88;5057292;28;20296;-52
2022/07/21 10:49:51;;;;;;;5.78;5.30;;;;;;;27.80;58.70;97138.91;5048548;28;20214;-52
2022/07/21 10:52:55;;;;;;;5.38;4.90;;;;;;;27.69;56.31;97137.88;5056480;28;20260;-52
2022/07/21 10:55:26;;;;;;;5.97;5.30;;;;;;;28.07;53.82;97134.59;5057093;28;20211;-53
2022/07/21 10:58:16;;;;;;;5.22;4.82;;;;;;;28.27;53.22;97134.16;5057545;28;20294;-53
2022/07/21 11:00:47;;;;;;;5.72;5.22;;;;;;;28.71;54.09;97118.13;5057611;28;20257;-54
2022/07/21 11:03:17;;;;;;;5.43;5.03;;;;;;;28.54;50.30;97129.78;5057077;28;20624;-53
2022/07/21 11:06:22;;;;;;;5.85;4.60;;;;;;;28.42;52.05;97123.56;5057296;28;20227;-53
2022/07/21 11:08:50;;;;;;;5.40;4.90;;;;;;;28.64;53.21;97124.53;5057666;28;20214;-53
2022/07/21 11:11:20;;;;;;;5.43;5.00;;;;;;;28.63;49.52;97128.31;5056843;28;20211;-53
2022/07/21 11:14:05;;;;;;;5.10;4.60;;;;;;;28.55;48.38;97126.00;5057147;28;20214;-53
2022/07/21 11:17:02;;;;;;;4.97;4.57;;;;;;;28.76;49.69;97123.66;5056790;28;20209;-53
2022/07/21 11:19:30;;;;;;;5.25;4.72;;;;;;;28.95;51.76;97119.63;5054831;28;20200;-53
2022/07/21 11:21:58;;;;;;;5.22;4.63;;;;;;;28.98;47.85;97116.41;5056921;28;20231;-53
2022/07/21 11:24:26;;;;;;;5.20;4.90;;;;;;;28.97;47.33;97118.31;5056515;28;20691;-52